Time;durP1;ratioP1;P1;durP2;ratioP2;P2;SDS_P1;SDS_P2;PMS_P1;PMS_P2;Temp;Humidity;BMP_temperature;BMP_pressure;BME280_temperature;BME280_humidity;BME280_pressure;Samples;Min_cycle;Max_cycle;Signal;HPM_P1;HPM_P2
2022/07/01 00:01:57;;;;;;;7.88;3.00;;;15.10;99.90;;;;;;4663006;30;20522;-83
2022/07/01 00:04:26;;;;;;;7.10;2.13;;;15.10;99.90;;;;;;4662503;30;20089;-84
2022/07/01 00:06:56;;;;;;;6.90;2.22;;;15.10;99.90;;;;;;4665249;30;20046;-84
2022/07/01 00:09:21;;;;;;;6.20;1.80;;;15.10;99.90;;;;;;4664710;30;20034;-84
2022/07/01 00:11:48;;;;;;;10.35;2.20;;;15.10;99.90;;;;;;4662796;30;20100;-84
2022/07/01 00:14:14;;;;;;;11.30;2.40;;;15.00;99.90;;;;;;4650756;30;20045;-84
2022/07/01 00:16:39;;;;;;;4.70;1.77;;;14.90;99.90;;;;;;4665076;30;20053;-84
2022/07/01 00:19:05;;;;;;;15.60;2.80;;;15.00;99.90;;;;;;4652433;30;20542;-84
2022/07/01 00:21:32;;;;;;;20.77;2.97;;;15.00;99.90;;;;;;4663124;30;20047;-84
2022/07/01 00:23:57;;;;;;;54.55;4.72;;;15.00;99.90;;;;;;4663095;30;20062;-85
2022/07/01 00:26:23;;;;;;;5.75;2.05;;;15.00;99.90;;;;;;4662565;30;20050;-84
2022/07/01 00:28:49;;;;;;;23.50;3.78;;;15.00;99.90;;;;;;4662371;30;20058;-85
2022/07/01 00:31:14;;;;;;;10.32;2.78;;;15.00;99.90;;;;;;4686624;30;20050;-83
2022/07/01 00:33:40;;;;;;;26.98;3.83;;;15.00;99.90;;;;;;4673411;30;20057;-84
2022/07/01 00:36:06;;;;;;;21.25;3.97;;;15.00;99.90;;;;;;4669830;30;20061;-84
2022/07/01 00:38:31;;;;;;;15.90;3.67;;;15.00;99.90;;;;;;4662931;30;20050;-85
2022/07/01 00:40:57;;;;;;;7.30;2.78;;;14.90;99.90;;;;;;4663371;30;20046;-85
2022/07/01 00:43:24;;;;;;;12.32;3.78;;;14.90;99.90;;;;;;4661529;30;20069;-85
2022/07/01 00:45:51;;;;;;;15.27;3.88;;;14.90;99.90;;;;;;4674656;30;20039;-85
2022/07/01 00:48:18;;;;;;;7.15;3.70;;;14.90;99.90;;;;;;4648229;30;20056;-84
2022/07/01 00:50:44;;;;;;;13.50;4.50;;;14.90;99.90;;;;;;4655837;30;20046;-84
2022/07/01 00:53:10;;;;;;;9.07;3.95;;;15.00;99.90;;;;;;4679420;30;20042;-85
2022/07/01 00:55:36;;;;;;;25.02;4.63;;;15.00;99.90;;;;;;4670485;30;20054;-84
2022/07/01 00:58:02;;;;;;;12.95;4.88;;;15.00;99.90;;;;;;4662535;30;20419;-84
2022/07/01 01:00:27;;;;;;;20.50;6.68;;;15.00;99.90;;;;;;4684407;30;20053;-85
2022/07/01 01:02:53;;;;;;;28.30;6.88;;;15.00;99.90;;;;;;4675980;30;20064;-84
2022/07/01 01:05:21;;;;;;;14.98;8.55;;;15.00;99.90;;;;;;4648388;30;20043;-84
2022/07/01 01:07:50;;;;;;;82.00;12.98;;;15.00;99.90;;;;;;4668978;30;20034;-84
2022/07/01 01:10:17;;;;;;;39.17;18.33;;;15.00;99.90;;;;;;4666467;30;20069;-84
2022/07/01 01:12:43;;;;;;;127.80;29.52;;;15.00;99.90;;;;;;4679874;30;20046;-85
2022/07/01 01:15:10;;;;;;;163.52;42.60;;;15.00;99.90;;;;;;4674389;30;20082;-86
2022/07/01 01:17:37;;;;;;;198.63;46.42;;;15.00;99.90;;;;;;4649045;30;20495;-84
2022/07/01 01:20:03;;;;;;;114.30;44.20;;;15.10;99.90;;;;;;4669469;30;20046;-85
2022/07/01 01:22:29;;;;;;;106.68;41.38;;;15.10;99.90;;;;;;4648509;30;20047;-85
2022/07/01 01:24:57;;;;;;;156.85;42.92;;;15.10;99.90;;;;;;4661906;30;20499;-84
2022/07/01 01:27:23;;;;;;;77.13;36.53;;;15.10;99.90;;;;;;4680970;30;20053;-84
2022/07/01 01:29:48;;;;;;;116.53;36.72;;;15.10;99.90;;;;;;4665669;30;20411;-85
2022/07/01 01:32:14;;;;;;;242.88;41.60;;;15.00;99.90;;;;;;4663139;30;20049;-84
2022/07/01 01:34:40;;;;;;;96.82;34.00;;;15.00;99.90;;;;;;4683176;30;20588;-84
2022/07/01 01:37:07;;;;;;;97.63;31.80;;;15.10;99.90;;;;;;4665191;30;20134;-84
2022/07/01 01:39:33;;;;;;;105.57;32.17;;;15.10;99.90;;;;;;4665260;30;20046;-85
2022/07/01 01:42:00;;;;;;;70.05;26.38;;;15.00;99.90;;;;;;4652106;30;20043;-85
2022/07/01 01:44:25;;;;;;;106.88;28.77;;;15.10;99.90;;;;;;4671623;30;20046;-84
2022/07/01 01:46:51;;;;;;;86.95;25.65;;;15.00;99.90;;;;;;4667869;30;20050;-84
2022/07/01 01:49:17;;;;;;;39.13;22.42;;;15.00;99.90;;;;;;4665250;30;20129;-84
2022/07/01 01:51:42;;;;;;;57.88;22.75;;;15.00;99.90;;;;;;4665808;30;20097;-84
2022/07/01 01:54:08;;;;;;;83.40;22.75;;;14.90;99.90;;;;;;4663733;30;20046;-84
2022/07/01 01:56:33;;;;;;;65.18;22.08;;;14.80;99.90;;;;;;4677329;30;20056;-85
2022/07/01 01:58:59;;;;;;;66.53;20.55;;;14.80;99.90;;;;;;4664816;30;20076;-85
2022/07/01 02:01:25;;;;;;;66.43;21.98;;;14.70;99.90;;;;;;4665382;30;20070;-84
2022/07/01 02:03:52;;;;;;;47.72;21.27;;;14.90;99.90;;;;;;4664712;30;20129;-84
2022/07/01 02:06:19;;;;;;;62.80;20.95;;;14.80;99.90;;;;;;4664622;30;20038;-85
2022/07/01 02:08:45;;;;;;;111.22;23.00;;;14.70;99.90;;;;;;4664519;30;20046;-84
2022/07/01 02:11:10;;;;;;;102.75;22.52;;;14.80;99.90;;;;;;4702694;30;20107;-84
2022/07/01 02:13:37;;;;;;;101.85;20.75;;;14.70;99.90;;;;;;4669427;30;20050;-85
2022/07/01 02:16:03;;;;;;;69.40;19.55;;;14.70;99.90;;;;;;4664826;30;20561;-84
2022/07/01 02:18:30;;;;;;;47.80;19.75;;;14.70;99.90;;;;;;4664903;30;20415;-84
2022/07/01 02:20:55;;;;;;;46.58;20.83;;;14.70;99.90;;;;;;4673292;30;20046;-84
2022/07/01 02:23:21;;;;;;;34.42;19.90;;;14.60;99.90;;;;;;4682002;30;20057;-84
2022/07/01 02:25:47;;;;;;;42.85;20.65;;;14.60;99.90;;;;;;4674590;30;20043;-84
2022/07/01 02:28:13;;;;;;;41.13;20.13;;;14.60;99.90;;;;;;4650419;30;20042;-84
2022/07/01 02:30:39;;;;;;;73.90;20.40;;;14.50;99.90;;;;;;4670170;30;20041;-84
2022/07/01 02:33:09;;;;;;;54.85;20.23;;;14.50;99.90;;;;;;4674653;30;20038;-86
2022/07/01 02:35:36;;;;;;;121.55;23.52;;;14.50;99.90;;;;;;4676400;30;20045;-84
2022/07/01 02:38:03;;;;;;;76.70;21.17;;;14.50;99.90;;;;;;4649365;30;20497;-84
2022/07/01 02:40:29;;;;;;;87.90;20.20;;;14.40;99.90;;;;;;4664562;30;20055;-84
2022/07/01 02:42:55;;;;;;;35.20;18.80;;;14.50;99.90;;;;;;4670640;30;20068;-84
2022/07/01 02:45:20;;;;;;;79.10;22.70;;;14.40;99.90;;;;;;4656830;30;20157;-85
2022/07/01 02:47:46;;;;;;;72.38;22.42;;;14.40;99.90;;;;;;4657087;30;20569;-84
2022/07/01 02:50:13;;;;;;;83.00;22.38;;;14.40;99.90;;;;;;4663987;30;20046;-85
2022/07/01 02:52:40;;;;;;;99.70;24.65;;;14.50;99.90;;;;;;4664391;30;20074;-84
2022/07/01 02:55:08;;;;;;;84.15;25.20;;;14.40;99.90;;;;;;4662881;30;20518;-83
2022/07/01 02:57:34;;;;;;;47.47;23.98;;;14.40;99.90;;;;;;4671491;30;20042;-84
2022/07/01 03:00:00;;;;;;;104.18;27.80;;;14.40;99.90;;;;;;4664181;30;20050;-84
2022/07/01 03:02:25;;;;;;;120.45;28.00;;;14.30;99.90;;;;;;4664415;30;20380;-84
2022/07/01 03:04:52;;;;;;;79.15;26.23;;;14.40;99.90;;;;;;4664179;30;20116;-85
2022/07/01 03:07:18;;;;;;;104.65;28.75;;;14.40;99.90;;;;;;4668566;30;20071;-84
2022/07/01 03:09:44;;;;;;;164.10;32.83;;;14.40;99.90;;;;;;4663561;30;20045;-85
2022/07/01 03:12:29;;;;;;;115.93;32.30;;;14.30;99.90;;;;;;4677541;30;20050;-84
2022/07/01 03:15:00;;;;;;;63.95;29.48;;;14.40;99.90;;;;;;4679094;30;20467;-84
2022/07/01 03:17:28;;;;;;;134.75;33.08;;;14.40;99.90;;;;;;4664002;30;20133;-84
2022/07/01 03:19:55;;;;;;;183.07;36.17;;;14.30;99.90;;;;;;4663346;30;20046;-84
2022/07/01 03:22:23;;;;;;;237.68;38.22;;;14.20;99.90;;;;;;4653370;30;20046;-84
2022/07/01 03:24:50;;;;;;;160.73;35.17;;;14.30;99.90;;;;;;4666869;30;20043;-84
2022/07/01 03:27:16;;;;;;;166.20;35.08;;;14.20;99.90;;;;;;4663341;30;20046;-85
2022/07/01 03:29:42;;;;;;;67.28;31.23;;;14.20;99.90;;;;;;4663535;30;20046;-84
2022/07/01 03:32:09;;;;;;;57.00;32.33;;;14.20;99.90;;;;;;4664040;30;20455;-84
2022/07/01 03:34:40;;;;;;;78.47;34.05;;;14.20;99.90;;;;;;4662943;30;20046;-84
2022/07/01 03:37:06;;;;;;;90.93;33.08;;;14.20;99.90;;;;;;4660684;30;20085;-84
2022/07/01 03:39:33;;;;;;;59.85;32.35;;;14.10;99.90;;;;;;4663132;30;20050;-85
2022/07/01 03:41:59;;;;;;;89.82;36.67;;;14.10;99.90;;;;;;4663850;30;20133;-84
2022/07/01 03:44:24;;;;;;;130.13;33.45;;;14.10;99.90;;;;;;4663211;30;20126;-85
2022/07/01 03:46:50;;;;;;;63.72;35.55;;;14.00;99.90;;;;;;4651501;30;20503;-85
2022/07/01 03:49:15;;;;;;;77.70;35.70;;;14.10;99.90;;;;;;4662730;30;20425;-84
2022/07/01 03:51:41;;;;;;;116.25;36.42;;;14.00;99.90;;;;;;4658217;30;20049;-85
2022/07/01 03:56:51;;;;;;;65.22;32.28;;;13.90;99.90;;;;;;4663119;30;20133;-83
2022/07/01 03:59:17;;;;;;;65.45;34.00;;;14.00;99.90;;;;;;4663476;30;20105;-85
2022/07/01 04:01:42;;;;;;;96.90;36.00;;;13.90;99.90;;;;;;4662861;30;20056;-85
2022/07/01 04:04:08;;;;;;;105.05;36.70;;;13.90;99.90;;;;;;4658307;30;20053;-85
2022/07/01 04:06:34;;;;;;;101.63;37.50;;;13.90;99.90;;;;;;4670163;30;20054;-84
2022/07/01 04:09:00;;;;;;;97.22;35.45;;;14.00;99.90;;;;;;4663131;30;20054;-85
2022/07/01 04:11:25;;;;;;;55.42;34.22;;;14.10;99.90;;;;;;4663578;30;20046;-84
2022/07/01 04:13:52;;;;;;;62.80;33.50;;;13.90;99.90;;;;;;4663233;30;20046;-85
2022/07/01 04:16:18;;;;;;;78.97;34.42;;;14.00;99.90;;;;;;4662927;30;20039;-85
2022/07/01 04:18:44;;;;;;;86.43;36.92;;;14.00;99.90;;;;;;4670206;30;20057;-85
2022/07/01 04:23:56;;;;;;;104.43;35.72;;;14.00;99.90;;;;;;4662928;30;20419;-85
2022/07/01 04:26:23;;;;;;;64.82;36.13;;;13.90;99.90;;;;;;4661772;30;20042;-85
2022/07/01 04:28:52;;;;;;;94.70;34.70;;;14.00;99.90;;;;;;4670219;30;20073;-85
2022/07/01 04:31:18;;;;;;;124.25;37.33;;;14.00;99.90;;;;;;4663142;30;20094;-85
2022/07/01 04:33:44;;;;;;;71.35;36.80;;;14.00;99.90;;;;;;4669232;30;20046;-85
2022/07/01 04:36:10;;;;;;;153.60;38.05;;;14.00;99.90;;;;;;4666918;30;20058;-85
2022/07/01 04:38:35;;;;;;;76.22;36.70;;;14.00;99.90;;;;;;4662459;30;20141;-85
2022/07/01 04:43:45;;;;;;;62.22;37.47;;;14.00;99.90;;;;;;4672872;30;20050;-85
2022/07/01 04:46:11;;;;;;;60.72;38.33;;;14.00;99.90;;;;;;4650107;30;20058;-85
2022/07/01 04:48:36;;;;;;;107.55;39.65;;;14.00;99.90;;;;;;4648906;30;20065;-85
2022/07/01 04:51:02;;;;;;;82.28;40.58;;;14.00;99.90;;;;;;4669699;30;20049;-85
2022/07/01 04:53:27;;;;;;;67.57;40.03;;;13.90;99.90;;;;;;4664420;30;20506;-85
2022/07/01 04:55:53;;;;;;;75.28;39.97;;;13.90;99.90;;;;;;4663205;30;20061;-85
2022/07/01 04:58:19;;;;;;;74.43;39.50;;;14.00;99.90;;;;;;4662991;30;20042;-85
2022/07/01 05:00:44;;;;;;;67.45;40.30;;;13.90;99.90;;;;;;4664824;30;20631;-85
2022/07/01 05:03:10;;;;;;;69.82;38.75;;;14.00;99.90;;;;;;4666796;30;20054;-85
2022/07/01 05:05:35;;;;;;;64.68;39.28;;;13.90;99.90;;;;;;4673303;30;20699;-85
2022/07/01 05:08:02;;;;;;;95.22;40.50;;;13.90;99.90;;;;;;4664283;30;20084;-86
2022/07/01 05:10:28;;;;;;;65.82;40.60;;;13.90;99.90;;;;;;4651768;30;20084;-85
2022/07/01 05:12:54;;;;;;;57.05;37.55;;;13.90;99.90;;;;;;4665550;30;20042;-85
2022/07/01 05:15:20;;;;;;;65.60;38.92;;;14.00;99.90;;;;;;4668943;30;20045;-85
2022/07/01 05:23:14;;;;;;;86.45;38.72;;;13.90;99.90;;;;;;4665882;30;20221;-85
2022/07/01 05:25:39;;;;;;;65.30;37.67;;;14.00;99.90;;;;;;4666410;30;20144;-85
2022/07/01 05:28:05;;;;;;;127.50;39.17;;;13.90;99.90;;;;;;4650194;30;20068;-86
2022/07/01 05:30:30;;;;;;;78.88;37.55;;;13.90;99.90;;;;;;4691761;30;20050;-84
2022/07/01 05:32:56;;;;;;;78.28;38.67;;;13.90;99.90;;;;;;4667893;30;20047;-85
2022/07/01 05:35:21;;;;;;;86.82;40.70;;;14.00;99.90;;;;;;4665724;30;20058;-85
2022/07/01 05:37:47;;;;;;;67.10;37.83;;;14.00;99.90;;;;;;4665475;30;20046;-85
2022/07/01 05:40:13;;;;;;;57.42;37.80;;;14.00;99.90;;;;;;4670853;30;20049;-84
2022/07/01 05:42:38;;;;;;;60.13;38.03;;;14.00;99.90;;;;;;4669880;30;20053;-84
2022/07/01 05:45:04;;;;;;;55.20;36.90;;;14.00;99.90;;;;;;4665918;30;20052;-85
2022/07/01 05:47:30;;;;;;;81.60;37.28;;;14.00;99.90;;;;;;4651082;30;20097;-85
2022/07/01 05:49:55;;;;;;;99.53;38.85;;;14.00;99.90;;;;;;4665509;30;20050;-86
2022/07/01 05:52:21;;;;;;;55.83;36.30;;;14.00;99.90;;;;;;4665519;30;20038;-86
2022/07/01 05:54:47;;;;;;;71.07;35.55;;;13.90;99.90;;;;;;4659408;30;20043;-85
2022/07/01 05:57:12;;;;;;;64.13;36.78;;;14.10;99.90;;;;;;4684979;30;20046;-84
2022/07/01 05:59:38;;;;;;;51.67;33.92;;;14.00;99.90;;;;;;4664658;30;20129;-84
2022/07/01 06:02:04;;;;;;;59.30;36.50;;;14.00;99.90;;;;;;4658450;30;20050;-86
2022/07/01 06:04:29;;;;;;;69.97;36.70;;;14.00;99.90;;;;;;4659725;30;20515;-85
2022/07/01 06:06:55;;;;;;;81.50;38.25;;;14.00;99.90;;;;;;4653892;30;20050;-84
2022/07/01 06:09:21;;;;;;;62.45;36.53;;;14.00;99.90;;;;;;4668622;30;20046;-85
2022/07/01 06:11:46;;;;;;;104.75;38.83;;;14.00;99.90;;;;;;4669393;30;20065;-85
2022/07/01 06:14:12;;;;;;;55.08;37.40;;;14.10;99.90;;;;;;4686253;30;20050;-87
2022/07/01 06:16:37;;;;;;;59.83;37.30;;;14.10;99.90;;;;;;4665944;30;20042;-85
2022/07/01 06:19:06;;;;;;;58.92;37.00;;;14.10;99.90;;;;;;4664672;30;20046;-85
2022/07/01 06:21:32;;;;;;;95.43;39.38;;;14.00;99.90;;;;;;4669590;30;20041;-86
2022/07/01 06:23:58;;;;;;;53.00;36.78;;;14.10;99.90;;;;;;4675020;30;20062;-85
2022/07/01 06:26:24;;;;;;;50.63;35.88;;;14.10;99.90;;;;;;4676859;30;20042;-85
2022/07/01 06:28:50;;;;;;;56.28;36.30;;;14.10;99.90;;;;;;4650410;30;20078;-85
2022/07/01 06:31:15;;;;;;;49.55;36.72;;;14.10;99.90;;;;;;4664654;30;20049;-85
2022/07/01 06:33:41;;;;;;;68.60;38.30;;;14.00;99.90;;;;;;4664639;30;20513;-85
2022/07/01 06:36:07;;;;;;;60.47;37.15;;;14.10;99.90;;;;;;4665207;30;20550;-85
2022/07/01 06:38:32;;;;;;;62.97;37.75;;;14.10;99.90;;;;;;4650178;30;20046;-85
2022/07/01 06:43:43;;;;;;;57.88;36.38;;;14.10;99.90;;;;;;4693104;30;20102;-85
2022/07/01 06:46:09;;;;;;;52.95;38.20;;;14.10;99.90;;;;;;4665219;30;20053;-84
2022/07/01 06:48:35;;;;;;;47.55;36.58;;;14.20;99.90;;;;;;4657163;30;20044;-85
2022/07/01 06:51:01;;;;;;;51.65;36.85;;;14.30;99.90;;;;;;4664583;30;20142;-85
2022/07/01 06:53:27;;;;;;;48.63;36.92;;;14.30;99.90;;;;;;4669019;30;20096;-85
2022/07/01 06:55:53;;;;;;;56.38;39.75;;;14.30;99.90;;;;;;4666388;30;20054;-85
2022/07/01 06:58:18;;;;;;;49.20;37.15;;;14.40;99.90;;;;;;4678041;30;20410;-85
2022/07/01 07:00:44;;;;;;;45.85;36.33;;;14.50;99.90;;;;;;4649769;30;20046;-85
2022/07/01 07:03:10;;;;;;;50.80;37.83;;;14.50;99.90;;;;;;4664182;30;20057;-85
2022/07/01 07:05:35;;;;;;;53.83;37.80;;;14.60;99.90;;;;;;4674098;30;20054;-86
2022/07/01 07:08:01;;;;;;;51.28;37.60;;;14.60;99.90;;;;;;4665987;30;20103;-85
2022/07/01 07:10:26;;;;;;;49.70;37.42;;;14.80;99.90;;;;;;4649826;30;20454;-85
2022/07/01 07:12:52;;;;;;;47.42;35.42;;;14.90;99.90;;;;;;4663477;30;20086;-85
2022/07/01 07:15:18;;;;;;;39.00;33.22;;;15.00;99.90;;;;;;4673869;30;20046;-87
2022/07/01 07:17:43;;;;;;;42.05;32.92;;;15.10;99.90;;;;;;4672758;30;20054;-86
2022/07/01 07:20:09;;;;;;;36.50;31.77;;;15.10;99.90;;;;;;4663860;30;20113;-85
2022/07/01 07:22:35;;;;;;;40.92;33.45;;;15.20;99.90;;;;;;4649399;30;20125;-85
2022/07/01 07:25:01;;;;;;;34.50;30.40;;;15.30;99.90;;;;;;4664270;30;20141;-87
2022/07/01 07:27:27;;;;;;;43.33;33.33;;;15.30;99.90;;;;;;4683249;30;20042;-88
2022/07/01 07:29:53;;;;;;;34.05;30.40;;;15.40;99.90;;;;;;4666369;30;20558;-84
2022/07/01 07:32:21;;;;;;;36.92;30.30;;;15.50;99.90;;;;;;4663578;30;20126;-86
2022/07/01 07:34:47;;;;;;;33.20;29.70;;;15.50;99.90;;;;;;4658602;30;20456;-86
2022/07/01 07:37:13;;;;;;;38.83;31.75;;;15.60;99.90;;;;;;4678115;30;20077;-86
2022/07/01 07:39:38;;;;;;;40.72;33.13;;;15.70;99.90;;;;;;4675302;30;20435;-85
2022/07/01 07:42:05;;;;;;;39.50;33.45;;;15.80;99.90;;;;;;4661923;30;20089;-84
2022/07/01 07:44:31;;;;;;;39.42;31.42;;;16.00;99.90;;;;;;4685305;30;20173;-86
2022/07/01 07:46:57;;;;;;;37.20;30.33;;;16.20;99.90;;;;;;4662111;30;20070;-85
2022/07/01 07:49:23;;;;;;;31.27;27.45;;;16.40;99.90;;;;;;4662073;30;20038;-86
2022/07/01 07:51:49;;;;;;;28.42;25.30;;;16.60;99.90;;;;;;4645868;30;20049;-85
2022/07/01 07:54:15;;;;;;;32.00;27.70;;;16.60;99.90;;;;;;4659991;30;20038;-86
2022/07/01 07:56:40;;;;;;;29.17;26.15;;;16.70;99.90;;;;;;4666592;30;20517;-85
2022/07/01 07:59:06;;;;;;;34.28;28.95;;;16.70;99.90;;;;;;4665275;30;20400;-85
2022/07/01 08:01:32;;;;;;;29.85;25.85;;;16.70;99.90;;;;;;4680373;30;20119;-86
2022/07/01 08:03:57;;;;;;;27.25;24.38;;;16.80;99.90;;;;;;4664327;30;20069;-85
2022/07/01 08:06:23;;;;;;;28.45;25.52;;;16.90;99.90;;;;;;4662879;30;20499;-87
2022/07/01 08:08:48;;;;;;;27.20;23.52;;;16.90;99.90;;;;;;4648656;30;20052;-85
2022/07/01 08:11:14;;;;;;;24.42;21.05;;;17.00;99.90;;;;;;4662213;30;20060;-86
2022/07/01 08:13:40;;;;;;;25.63;23.00;;;17.00;99.90;;;;;;4676201;30;20141;-85
2022/07/01 08:16:05;;;;;;;25.88;23.27;;;17.00;99.90;;;;;;4680526;30;20116;-82
2022/07/01 08:18:31;;;;;;;27.77;24.73;;;16.80;99.90;;;;;;4664242;30;20061;-85
2022/07/01 08:20:57;;;;;;;28.70;24.67;;;17.00;99.90;;;;;;4649060;30;20042;-83
2022/07/01 08:23:23;;;;;;;31.00;26.60;;;17.10;99.90;;;;;;4676830;30;20054;-82
2022/07/01 08:25:50;;;;;;;28.58;24.80;;;17.20;99.90;;;;;;4664441;30;20050;-84
2022/07/01 08:28:16;;;;;;;27.02;24.10;;;17.30;99.90;;;;;;4655958;30;20138;-84
2022/07/01 08:30:42;;;;;;;25.15;22.60;;;17.40;99.90;;;;;;4663372;30;20511;-85
2022/07/01 08:33:09;;;;;;;26.10;23.48;;;17.80;99.90;;;;;;4664216;30;20042;-86
2022/07/01 08:35:35;;;;;;;24.77;22.00;;;18.10;99.90;;;;;;4664713;30;20092;-84
2022/07/01 08:38:02;;;;;;;22.80;20.50;;;18.40;99.90;;;;;;4673739;30;20090;-83
2022/07/01 08:40:29;;;;;;;21.20;19.02;;;18.60;99.90;;;;;;4673162;30;20045;-84
2022/07/01 08:43:00;;;;;;;20.90;18.80;;;18.80;99.90;;;;;;4677821;30;20053;-82
2022/07/01 08:45:27;;;;;;;22.33;19.58;;;19.00;99.90;;;;;;4663471;30;20499;-83
2022/07/01 08:47:57;;;;;;;18.38;15.25;;;19.20;99.90;;;;;;4673207;30;20042;-84
2022/07/01 08:50:24;;;;;;;18.55;16.70;;;19.30;99.90;;;;;;4666367;30;20050;-84
2022/07/01 08:52:49;;;;;;;18.00;16.30;;;19.30;99.90;;;;;;4666249;30;20134;-84
2022/07/01 08:55:15;;;;;;;17.92;16.13;;;19.30;99.90;;;;;;4666142;30;20133;-84
2022/07/01 08:57:40;;;;;;;17.45;15.65;;;19.20;99.90;;;;;;4666258;30;20141;-83
2022/07/01 09:00:08;;;;;;;17.55;15.63;;;19.30;99.90;;;;;;4662094;30;20141;-83
2022/07/01 09:02:48;;;;;;;15.75;12.63;;;19.40;99.90;;;;;;4676353;30;20096;-84
2022/07/01 09:05:14;;;;;;;12.88;11.32;;;19.50;99.90;;;;;;4683405;30;20061;-82
2022/07/01 09:07:40;;;;;;;13.88;11.80;;;19.80;99.90;;;;;;4683216;30;20046;-84
2022/07/01 09:10:19;;;;;;;12.05;10.85;;;20.30;99.90;;;;;;4677584;30;20054;-84
2022/07/01 09:12:48;;;;;;;12.32;11.05;;;20.50;99.90;;;;;;4672605;30;20077;-83
2022/07/01 09:15:27;;;;;;;11.93;10.73;;;20.50;99.90;;;;;;4682885;30;20080;-83
2022/07/01 09:17:54;;;;;;;11.75;9.77;;;20.40;99.90;;;;;;4682848;30;20498;-83
2022/07/01 09:20:30;;;;;;;11.00;9.73;;;20.30;99.90;;;;;;4683055;30;20042;-81
2022/07/01 09:23:00;;;;;;;11.80;10.20;;;20.60;99.90;;;;;;4682906;30;20085;-83
2022/07/01 09:25:28;;;;;;;11.32;9.73;;;21.00;99.90;;;;;;4668917;30;20495;-83
2022/07/01 09:28:09;;;;;;;10.68;9.02;;;21.40;99.90;;;;;;4673284;30;20406;-82
2022/07/01 09:30:35;;;;;;;11.15;8.65;;;21.50;99.90;;;;;;4683037;30;20042;-83
2022/07/01 09:33:13;;;;;;;11.48;10.23;;;21.70;99.90;;;;;;4682670;30;20064;-83
2022/07/01 09:35:39;;;;;;;10.90;8.18;;;21.90;99.90;;;;;;4683214;30;20516;-82
2022/07/01 09:38:07;;;;;;;10.73;8.27;;;22.10;99.90;;;;;;4680248;30;20082;-83
2022/07/01 09:40:56;;;;;;;9.95;7.88;;;22.40;99.90;;;;;;4669965;30;20050;-84
2022/07/01 09:43:27;;;;;;;10.45;8.30;;;22.70;99.90;;;;;;4678550;30;20050;-83
2022/07/01 09:46:05;;;;;;;9.35;7.07;;;22.90;99.90;;;;;;4658374;30;20054;-83
2022/07/01 09:48:34;;;;;;;7.10;6.25;;;23.10;99.90;;;;;;4668775;30;20074;-83
2022/07/01 09:51:02;;;;;;;7.07;5.72;;;22.80;99.90;;;;;;4664658;30;20051;-84
2022/07/01 09:53:27;;;;;;;8.75;6.28;;;22.40;99.90;;;;;;4675594;30;20073;-82
2022/07/01 09:55:53;;;;;;;10.93;6.30;;;22.20;99.90;;;;;;4667183;30;20467;-82
2022/07/01 09:58:19;;;;;;;7.80;5.85;;;22.30;99.90;;;;;;4667871;30;20048;-83
2022/07/01 10:00:45;;;;;;;7.35;5.43;;;22.40;99.90;;;;;;4675230;30;20077;-82
2022/07/01 10:03:12;;;;;;;6.20;5.60;;;22.50;99.90;;;;;;4669004;30;20534;-84
2022/07/01 10:05:43;;;;;;;6.97;4.53;;;22.80;99.90;;;;;;4664997;30;20050;-82
2022/07/01 10:08:37;;;;;;;9.90;5.28;;;22.90;99.90;;;;;;4680613;30;20050;-81
2022/07/01 10:11:24;;;;;;;7.40;4.60;;;23.10;99.90;;;;;;4666818;30;20136;-81
2022/07/01 10:13:51;;;;;;;6.65;4.68;;;23.20;99.90;;;;;;4663938;30;20050;-83
2022/07/01 10:16:17;;;;;;;5.90;4.50;;;23.20;99.90;;;;;;4663612;30;20574;-83
2022/07/01 10:18:43;;;;;;;8.18;4.00;;;23.20;99.90;;;;;;4657432;30;20093;-83
2022/07/01 10:21:11;;;;;;;5.70;4.32;;;23.10;99.90;;;;;;4664029;30;20054;-82
2022/07/01 10:23:42;;;;;;;7.85;4.05;;;22.90;99.90;;;;;;4663032;30;20050;-81
2022/07/01 10:26:10;;;;;;;7.15;3.25;;;23.00;99.90;;;;;;4663514;30;20077;-81
2022/07/01 10:28:41;;;;;;;4.65;3.17;;;23.10;99.90;;;;;;4660945;30;20074;-86
2022/07/01 10:31:13;;;;;;;6.07;3.15;;;23.10;99.90;;;;;;4674844;30;20050;-83
2022/07/01 10:33:55;;;;;;;6.78;3.00;;;23.30;99.90;;;;;;4663880;30;20331;-82
2022/07/01 10:36:35;;;;;;;5.13;2.70;;;23.20;99.90;;;;;;4669990;30;20082;-83
2022/07/01 10:39:01;;;;;;;4.25;3.30;;;23.00;99.90;;;;;;4663114;30;20046;-81
2022/07/01 10:41:32;;;;;;;6.57;3.55;;;22.80;99.90;;;;;;4671282;30;20573;-80
2022/07/01 10:44:02;;;;;;;6.43;3.00;;;22.80;99.90;;;;;;4663696;30;20051;-82
2022/07/01 10:46:45;;;;;;;4.35;2.80;;;22.80;99.90;;;;;;4663346;30;20498;-80
2022/07/01 10:49:15;;;;;;;5.10;2.90;;;22.80;99.90;;;;;;4672793;30;20357;-82
2022/07/01 10:51:54;;;;;;;5.22;2.58;;;22.70;99.90;;;;;;4671427;30;20047;-82
2022/07/01 10:54:45;;;;;;;5.45;2.30;;;22.50;99.90;;;;;;4664013;30;20050;-85
2022/07/01 10:57:19;;;;;;;5.78;2.40;;;22.30;99.90;;;;;;4664393;30;20474;-84
2022/07/01 11:00:00;;;;;;;3.83;1.90;;;22.20;99.90;;;;;;4649844;30;20042;-86
2022/07/01 11:02:34;;;;;;;3.58;1.30;;;22.30;99.90;;;;;;4654445;30;20042;-85
2022/07/01 11:05:06;;;;;;;5.03;1.70;;;22.70;99.90;;;;;;4670443;30;20042;-84
2022/07/01 11:07:35;;;;;;;4.80;1.60;;;22.80;99.90;;;;;;4676495;30;20465;-85
2022/07/01 11:10:04;;;;;;;5.45;1.42;;;22.70;99.90;;;;;;4644630;30;20047;-85
2022/07/01 11:12:30;;;;;;;3.58;1.50;;;22.40;99.90;;;;;;4666268;30;20069;-84
2022/07/01 11:14:58;;;;;;;4.57;1.90;;;22.00;99.90;;;;;;4656795;30;20035;-84
2022/07/01 11:17:25;;;;;;;4.50;1.83;;;21.70;99.90;;;;;;4656283;30;20072;-82
2022/07/01 11:19:57;;;;;;;7.65;2.35;;;21.60;99.90;;;;;;4655184;30;20115;-86
2022/07/01 11:22:25;;;;;;;4.25;1.90;;;21.60;99.90;;;;;;4658795;30;20644;-85
2022/07/01 11:24:59;;;;;;;6.38;1.70;;;21.90;99.90;;;;;;4662830;30;20046;-86
2022/07/01 11:27:26;;;;;;;4.07;1.60;;;22.30;99.90;;;;;;4669283;30;20404;-86
2022/07/01 11:29:53;;;;;;;4.65;1.80;;;22.50;99.90;;;;;;4663011;30;20046;-86
2022/07/01 11:32:30;;;;;;;5.90;1.83;;;22.70;99.90;;;;;;4669747;30;20495;-86
2022/07/01 11:34:57;;;;;;;4.38;1.70;;;22.90;99.90;;;;;;4664204;30;20437;-87
2022/07/01 11:40:13;;;;;;;4.13;1.10;;;23.30;99.90;;;;;;4670182;30;20054;-89
2022/07/01 11:42:40;;;;;;;5.00;1.50;;;23.60;99.90;;;;;;4656233;30;20050;-90
2022/07/01 11:45:07;;;;;;;5.90;1.30;;;23.60;99.90;;;;;;4650041;30;20050;-87
2022/07/01 11:47:33;;;;;;;4.65;1.23;;;23.60;99.90;;;;;;4662507;30;20481;-87
2022/07/01 11:50:00;;;;;;;5.45;1.42;;;23.60;99.90;;;;;;4681828;30;20147;-86
2022/07/01 11:52:26;;;;;;;4.38;1.65;;;23.60;99.90;;;;;;4662357;30;20422;-85
2022/07/01 11:54:55;;;;;;;4.50;1.33;;;23.50;99.90;;;;;;4708399;24;20051;-79
2022/07/01 11:57:29;;;;;;;3.75;1.60;;;23.30;99.90;;;;;;4678439;30;20411;-78
2022/07/01 11:59:56;;;;;;;4.35;1.50;;;23.10;99.90;;;;;;4663871;30;20141;-78
2022/07/01 12:02:23;;;;;;;4.75;1.60;;;22.80;99.90;;;;;;4664095;30;20193;-78
2022/07/01 12:04:50;;;;;;;4.45;1.25;;;22.50;99.90;;;;;;4674017;30;20087;-77
2022/07/01 12:07:21;;;;;;;4.07;1.35;;;22.20;99.90;;;;;;4691062;30;20046;-78
2022/07/01 12:09:47;;;;;;;4.00;1.42;;;21.90;99.90;;;;;;4663382;30;20124;-79
2022/07/01 12:12:22;;;;;;;5.82;1.50;;;21.90;99.90;;;;;;4663742;30;20407;-78
2022/07/01 12:14:53;;;;;;;6.20;1.92;;;22.30;99.90;;;;;;4663718;30;20057;-78
2022/07/01 12:17:20;;;;;;;5.38;1.70;;;22.40;99.90;;;;;;4692377;30;20055;-78
2022/07/01 12:19:47;;;;;;;5.07;1.67;;;22.30;99.90;;;;;;4650019;30;20042;-78
2022/07/01 12:22:33;;;;;;;4.13;1.45;;;22.00;99.90;;;;;;4663677;30;20089;-78
2022/07/01 12:25:11;;;;;;;3.60;1.45;;;21.70;99.90;;;;;;4663975;30;20082;-78
2022/07/01 12:27:38;;;;;;;3.85;1.60;;;21.40;99.90;;;;;;4677734;30;20050;-78
2022/07/01 12:30:06;;;;;;;4.20;1.80;;;21.20;99.90;;;;;;4663174;30;20250;-78
2022/07/01 12:32:36;;;;;;;5.10;2.10;;;20.90;99.90;;;;;;4662684;30;20050;-78
2022/07/01 12:35:04;;;;;;;4.10;1.65;;;20.80;99.90;;;;;;4677757;30;20063;-78
2022/07/01 12:37:35;;;;;;;3.38;1.50;;;20.70;99.90;;;;;;4649204;30;20046;-78
2022/07/01 12:40:19;;;;;;;4.82;1.60;;;20.60;99.90;;;;;;4647941;30;20069;-78
2022/07/01 12:42:45;;;;;;;4.55;1.65;;;20.60;99.90;;;;;;4677101;30;20050;-79
2022/07/01 12:45:13;;;;;;;5.75;1.50;;;20.70;99.90;;;;;;4689706;30;20109;-78
2022/07/01 12:47:48;;;;;;;5.68;2.33;;;21.00;99.90;;;;;;4706628;30;20054;-78
2022/07/01 12:50:22;;;;;;;6.45;2.15;;;21.20;99.90;;;;;;4649974;30;20073;-79
2022/07/01 12:53:04;;;;;;;4.45;1.42;;;21.30;99.90;;;;;;4677745;30;20102;-79
2022/07/01 12:55:39;;;;;;;5.20;1.60;;;21.10;99.90;;;;;;4677794;30;20073;-79